La Bolsa, New Mexico
Current Conditions -  °F | °C
As of 8:35 AM on Thursday 23 Oct 2014 (Local Time) from KLAM Reporting Station
Clear Clear  
Wind Chill: 45°   Ceiling: Unl
Heat Index: 45°   Visibility: 10mi
Dew Point: 34°   Wind: 0mph
Humidity: 64%   Direction: NA
Pressure: 30.35"   Gusts: NA
Location:  36.1441°N, 105.996°W
Report Text: KLAM 231435Z AUTO 00000KT 10SM CLR 07/01 A3035 RMK AO2 T00740010
Loading
Personal Weather Stations






























Interactive Weather Map
Tropical Storm Tracking
New forecast layout! Learn more

10-Day Weather Forecast

Advertisements
Track Severe Weather on mobile